Mabton, WA

5:55 PM PDT on March 31, 2015 (GMT -0700)
Mabton 2 SE | | Change Station
CLOSE
Current Station
Personal Weather Station
Location: Mabton, WA
Elevation: 725 ft
Nearby Weather Stations

Elev 725 ft 46.20 °N, 119.96 °W | Updated 5 minutes ago

Partly Cloudy
Partly Cloudy
56.6 °F
Feels Like 56.6 °F
N
16.0
Wind Variable Wind from SW
Gusts 24.0 mph

Today
High -- | Low -- °F
--% Chance of Precip.
Yesterday
High -- | Low -- °F
Precip. -- in
6:41 AM 7:27 PM
Waxing Gibbous, 89% visible
Pressure 30.01 in
Visibility 10.0 miles
Clouds Few 12000 ft
Dew Point 33 °F
Humidity 41%
Rainfall 0.00 in
Snow Depth Not available.
UV 2 out of 12
Pollen 10.60 out of 12
Air Quality Not available.
Flu Activity Not available.
METAR KYKM 312353Z 27012G24KT 10SM FEW120 14/M04 A3001 RMK AO2 PK WND 28026/2333 SLP163 T01391039 10167 20133 53006

More Conditions Fewer Conditions

Pressure 30.01 in
Visibility 10.0 miles
Clouds Few 12000 ft
Dew Point 33 °F
Humidity 41%
Rainfall 0.00 in
Snow Depth Not available.
UV 2 out of 12
Pollen 10.60 out of 12
Air Quality Not available.
Flu Activity Not available.
METAR KYKM 312353Z 27012G24KT 10SM FEW120 14/M04 A3001 RMK AO2 PK WND 28026/2333 SLP163 T01391039 10167 20133 53006

More Conditions Fewer Conditions

10-Day Weather Forecast

Almanac

Astronomy

Mar. 31, 2015 Rise Set
Actual Time
Civil Twilight
Nautical Twilight
Astronomical Twilight
Moon
Length of Visible Light
Length of Day
Tomorrow will be .
, % of the Moon is Illuminated

Today's Extremes

State Highs State Lows

Community

WunderPhotos

Upload Photos

1,809,887 photos uploaded!

WunderBlogs® & News

Nearby

Air Quality

  Air Quality AQ Index Pollutant
Not available.

Snow Depth

Station Depth Elevation

Earthquake Activity

City Distance Mag. Time & Date
Minimum magnitude displayed is 2.5.

Coastal Water Temperatures

Place Temperature

Stations

Nearby Weather Stations

Station Location Temp. Windchill Dew Point Humidity Wind Precip. Elev Updated Type